createdAt,value
2019-06-01T00:00:15.772Z,2.40
2019-06-01T00:02:48.314Z,4.33
2019-06-01T00:05:15.008Z,1.37
2019-06-01T00:07:44.880Z,1.10
2019-06-01T00:10:13.593Z,0.90
2019-06-01T00:12:43.255Z,4.43
2019-06-01T00:15:15.657Z,1.50
2019-06-01T00:17:47.962Z,3.33
2019-06-01T00:20:16.284Z,1.70
2019-06-01T00:23:13.185Z,0.80
2019-06-01T00:25:42.601Z,1.00
2019-06-01T00:28:11.390Z,2.40
2019-06-01T00:30:39.807Z,1.70
2019-06-01T00:33:08.313Z,1.30
2019-06-01T00:35:39.603Z,1.57
2019-06-01T00:38:07.887Z,1.13
2019-06-01T00:40:36.216Z,0.87
2019-06-01T00:43:04.672Z,2.10
2019-06-01T00:45:32.946Z,2.40
2019-06-01T00:48:01.159Z,2.00
2019-06-01T00:50:29.496Z,2.00
2019-06-01T00:52:58.082Z,1.97
2019-06-01T00:55:26.598Z,1.00
2019-06-01T00:57:55.078Z,1.73
2019-06-01T01:00:23.727Z,2.23
2019-06-01T01:02:57.086Z,1.07
2019-06-01T01:05:32.827Z,2.53
2019-06-01T01:08:02.761Z,1.80
2019-06-01T01:10:39.391Z,0.90
2019-06-01T01:13:20.869Z,2.37
2019-06-01T01:15:49.617Z,0.77
2019-06-01T01:18:19.230Z,1.80
2019-06-01T01:20:54.201Z,1.53
2019-06-01T01:23:22.813Z,2.50
2019-06-01T01:25:52.502Z,1.30
2019-06-01T01:28:23.873Z,1.07
2019-06-01T01:31:02.685Z,1.67
2019-06-01T01:33:21.039Z,2.27
2019-06-01T01:35:49.711Z,2.23
2019-06-01T01:38:31.509Z,1.20
2019-06-01T01:41:40.083Z,1.80
2019-06-01T01:44:06.539Z,1.50
2019-06-01T01:46:46.807Z,1.33
2019-06-01T01:52:23.432Z,2.43
2019-06-01T01:55:01.185Z,3.00
2019-06-01T01:57:32.548Z,1.90
2019-06-01T02:00:02.546Z,2.67
2019-06-01T02:02:33.284Z,2.37
2019-06-01T02:05:05.020Z,1.10
2019-06-01T02:07:41.960Z,1.10
2019-06-01T02:10:13.027Z,3.50
2019-06-01T02:12:41.600Z,2.00
2019-06-01T02:15:48.328Z,2.33
2019-06-01T02:18:17.208Z,2.93
2019-06-01T02:20:47.418Z,0.93
2019-06-01T02:23:15.844Z,3.80
2019-06-01T02:25:45.913Z,1.53
2019-06-01T02:28:15.029Z,2.10
2019-06-01T02:30:44.933Z,3.33
2019-06-01T02:33:13.751Z,1.70
2019-06-01T02:35:42.397Z,1.10
2019-06-01T02:38:12.479Z,2.73
2019-06-01T02:40:45.741Z,4.13
2019-06-01T02:43:22.599Z,1.70
2019-06-01T02:46:02.504Z,2.53
2019-06-01T02:48:31.328Z,2.63
2019-06-01T02:51:01.629Z,1.30
2019-06-01T02:53:30.480Z,6.03
2019-06-01T02:55:59.933Z,3.40
2019-06-01T02:58:41.749Z,2.73
2019-06-01T03:01:18.700Z,2.90
2019-06-01T03:03:47.506Z,1.47
2019-06-01T03:06:17.619Z,1.63
2019-06-01T03:08:55.679Z,1.53
2019-06-01T03:11:25.729Z,1.30
2019-06-01T03:14:00.334Z,4.33
2019-06-01T03:16:30.496Z,2.60
2019-06-01T03:19:06.036Z,1.83
2019-06-01T03:21:49.195Z,3.80
2019-06-01T03:24:19.401Z,1.37
2019-06-01T03:26:48.683Z,3.70
2019-06-01T03:29:23.768Z,2.63
2019-06-01T03:31:52.015Z,1.00
2019-06-01T03:34:20.108Z,1.10
2019-06-01T03:36:48.359Z,2.33
2019-06-01T03:39:16.928Z,1.20
2019-06-01T03:41:46.945Z,2.07
2019-06-01T03:44:15.298Z,2.10
2019-06-01T03:46:43.551Z,2.70
2019-06-01T03:49:12.037Z,2.33
2019-06-01T03:51:46.401Z,2.00
2019-06-01T03:54:26.801Z,2.13
2019-06-01T03:56:54.971Z,3.33
2019-06-01T03:59:23.156Z,2.53
2019-06-01T04:01:51.298Z,2.67
2019-06-01T04:04:19.423Z,3.10
2019-06-01T04:06:47.500Z,2.10
2019-06-01T04:09:15.600Z,3.77
2019-06-01T04:11:43.666Z,2.97
2019-06-01T04:14:11.872Z,2.13
2019-06-01T04:16:42.954Z,2.73
2019-06-01T04:19:12.170Z,4.77
2019-06-01T04:21:40.610Z,2.13
2019-06-01T04:24:08.728Z,3.37
2019-06-01T04:26:36.786Z,3.83
2019-06-01T04:29:06.321Z,2.53
2019-06-01T04:31:35.999Z,3.30
2019-06-01T04:34:04.650Z,1.03
2019-06-01T04:36:33.299Z,2.13
2019-06-01T04:39:01.535Z,2.33
2019-06-01T04:41:29.619Z,2.50
2019-06-01T04:43:57.882Z,3.47
2019-06-01T04:46:26.032Z,2.57
2019-06-01T04:48:54.362Z,2.00
2019-06-01T04:51:22.527Z,3.80
2019-06-01T04:53:50.916Z,2.83
2019-06-01T04:56:21.085Z,4.30
2019-06-01T04:58:49.459Z,5.90
2019-06-01T05:01:17.564Z,2.40
2019-06-01T05:03:45.786Z,6.23
2019-06-01T05:06:15.363Z,2.47
2019-06-01T05:08:43.760Z,3.80
2019-06-01T05:11:11.875Z,2.20
2019-06-01T05:13:39.937Z,3.47
2019-06-01T05:16:07.991Z,4.50
2019-06-01T05:18:36.083Z,3.97
2019-06-01T05:21:04.094Z,1.33
2019-06-01T05:23:32.205Z,3.10
2019-06-01T05:26:00.357Z,2.23
2019-06-01T05:28:28.415Z,5.70
2019-06-01T05:30:56.525Z,3.23
2019-06-01T05:33:36.969Z,3.33
2019-06-01T05:35:54.467Z,3.43
2019-06-01T05:38:22.573Z,2.70
2019-06-01T05:40:50.690Z,3.53
2019-06-01T05:43:21.102Z,1.67
2019-06-01T05:45:48.806Z,1.47
2019-06-01T05:48:23.639Z,3.67
2019-06-01T05:50:46.937Z,1.87
2019-06-01T05:53:15.033Z,6.57
2019-06-01T05:55:43.137Z,3.33
2019-06-01T05:58:12.986Z,7.10
2019-06-01T06:00:42.225Z,3.20
2019-06-01T06:03:12.886Z,3.50
2019-06-01T06:05:41.904Z,1.90
2019-06-01T06:08:10.049Z,3.97
2019-06-01T06:10:38.096Z,3.20
2019-06-01T06:13:06.118Z,5.00
2019-06-01T06:15:34.189Z,1.97
2019-06-01T06:18:02.349Z,2.73
2019-06-01T06:20:30.466Z,4.00
2019-06-01T06:22:58.613Z,1.87
2019-06-01T06:25:28.635Z,3.27
2019-06-01T06:27:56.662Z,2.43
2019-06-01T06:30:24.842Z,3.47
2019-06-01T06:32:53.013Z,3.43
2019-06-01T06:35:21.556Z,3.43
2019-06-01T06:37:50.012Z,2.50
2019-06-01T06:40:18.475Z,3.87
2019-06-01T06:42:46.572Z,3.17
2019-06-01T06:45:14.721Z,3.20
2019-06-01T06:47:42.831Z,2.23
2019-06-01T06:50:14.912Z,3.57
2019-06-01T06:52:48.542Z,1.70
2019-06-01T06:55:17.783Z,3.17
2019-06-01T06:57:46.068Z,3.43
2019-06-01T07:00:14.315Z,4.23
2019-06-01T07:02:42.678Z,2.87
2019-06-01T07:05:11.482Z,3.17
2019-06-01T07:07:39.670Z,2.13
2019-06-01T07:10:08.009Z,5.57
2019-06-01T07:12:36.451Z,3.50
2019-06-01T07:15:04.886Z,2.53
2019-06-01T07:17:39.498Z,3.17
2019-06-01T07:20:14.191Z,4.17
2019-06-01T07:22:42.437Z,3.10
2019-06-01T07:25:10.651Z,4.37
2019-06-01T07:27:38.870Z,4.40
2019-06-01T07:30:07.301Z,4.13
2019-06-01T07:32:38.074Z,6.73
2019-06-01T07:35:06.274Z,2.43
2019-06-01T07:37:34.888Z,5.37
2019-06-01T07:40:03.366Z,3.30
2019-06-01T07:42:32.969Z,3.10
2019-06-01T07:45:01.979Z,4.17
2019-06-01T07:47:30.349Z,4.10
2019-06-01T07:49:58.860Z,2.63
2019-06-01T07:52:28.243Z,4.00
2019-06-01T07:55:00.049Z,2.77
2019-06-01T07:57:29.849Z,5.10
2019-06-01T07:59:59.303Z,4.90
2019-06-01T08:02:29.477Z,3.47
2019-06-01T08:04:57.559Z,3.40
2019-06-01T08:07:26.481Z,5.30
2019-06-01T08:09:55.647Z,4.13
2019-06-01T08:12:25.436Z,4.30
2019-06-01T08:14:53.663Z,3.30
2019-06-01T08:17:22.026Z,2.47
2019-06-01T08:19:52.073Z,6.20
2019-06-01T08:22:20.362Z,2.73
2019-06-01T08:24:48.630Z,2.20
2019-06-01T08:27:16.731Z,4.20
2019-06-01T08:29:44.783Z,6.50
2019-06-01T08:32:12.938Z,3.43
2019-06-01T08:34:40.990Z,3.57
2019-06-01T08:37:09.060Z,5.43
2019-06-01T08:39:37.343Z,2.37
2019-06-01T08:42:05.579Z,2.90
2019-06-01T08:44:33.834Z,3.40
2019-06-01T08:47:01.938Z,1.93
2019-06-01T08:49:30.757Z,1.27
2019-06-01T08:52:01.582Z,2.97
2019-06-01T08:54:30.269Z,1.20
2019-06-01T08:56:58.613Z,1.13
2019-06-01T08:59:28.384Z,2.00
2019-06-01T09:01:56.582Z,1.73
2019-06-01T09:04:24.722Z,2.73
2019-06-01T09:06:52.931Z,0.87
2019-06-01T09:09:21.111Z,2.13
2019-06-01T09:11:49.349Z,0.73
2019-06-01T09:14:17.489Z,3.73
2019-06-01T09:16:45.595Z,2.57
2019-06-01T09:19:13.680Z,2.13
2019-06-01T09:21:41.843Z,2.60
2019-06-01T09:24:09.963Z,2.97
2019-06-01T09:26:38.023Z,2.30
2019-06-01T09:29:06.124Z,0.80
2019-06-01T09:31:34.440Z,0.80
2019-06-01T09:34:02.498Z,2.50
2019-06-01T09:36:30.646Z,1.27
2019-06-01T09:38:58.837Z,3.60
2019-06-01T09:41:26.863Z,1.00
2019-06-01T09:43:54.927Z,1.60
2019-06-01T09:46:23.029Z,0.90
2019-06-01T09:48:51.254Z,0.97
2019-06-01T09:51:19.537Z,0.87
2019-06-01T09:53:47.706Z,0.97
2019-06-01T09:56:15.857Z,1.17
2019-06-01T09:58:43.878Z,1.00
2019-06-01T10:01:12.009Z,1.80
2019-06-01T10:03:40.239Z,1.80
2019-06-01T10:06:08.321Z,1.07
2019-06-01T10:08:36.386Z,1.23
2019-06-01T10:11:04.469Z,2.70
2019-06-01T10:13:33.357Z,1.73
2019-06-01T10:16:02.453Z,0.90
2019-06-01T10:18:30.925Z,1.13
2019-06-01T10:20:59.168Z,2.00
2019-06-01T10:23:27.253Z,2.07
2019-06-01T10:25:55.275Z,2.80
2019-06-01T10:28:23.344Z,1.40
2019-06-01T10:30:51.501Z,1.83
2019-06-01T10:33:19.642Z,1.30
2019-06-01T10:35:47.881Z,3.10
2019-06-01T10:38:16.019Z,1.10
2019-06-01T10:40:44.111Z,3.20
2019-06-01T10:43:12.141Z,2.27
2019-06-01T10:45:40.291Z,1.30
2019-06-01T10:48:08.399Z,1.83
2019-06-01T10:50:36.735Z,3.73
2019-06-01T10:53:05.057Z,2.57
2019-06-01T10:55:34.119Z,2.50
2019-06-01T10:58:02.497Z,2.17
2019-06-01T11:00:39.717Z,2.93
2019-06-01T11:03:00.514Z,1.70
2019-06-01T11:05:28.652Z,3.13
2019-06-01T11:07:56.755Z,1.50
2019-06-01T11:10:26.432Z,3.03
2019-06-01T11:12:54.745Z,5.03
2019-06-01T11:15:23.066Z,3.70
2019-06-01T11:17:51.140Z,1.33
2019-06-01T11:20:19.213Z,1.40
2019-06-01T11:22:47.351Z,2.07
2019-06-01T11:25:15.416Z,2.30
2019-06-01T11:27:44.045Z,2.83
2019-06-01T11:30:13.325Z,3.20
2019-06-01T11:32:43.146Z,1.70
2019-06-01T11:35:11.876Z,1.53
2019-06-01T11:37:40.415Z,1.50
2019-06-01T11:40:08.673Z,4.10
2019-06-01T11:42:37.089Z,2.43
2019-06-01T11:45:05.585Z,2.83
2019-06-01T11:47:34.704Z,3.10
2019-06-01T11:50:02.895Z,2.70
2019-06-01T11:52:30.956Z,1.60
2019-06-01T11:54:59.034Z,1.87
2019-06-01T11:57:27.119Z,1.30
2019-06-01T11:59:55.186Z,2.57
2019-06-01T12:02:24.944Z,1.40
2019-06-01T12:04:53.129Z,1.00
2019-06-01T12:07:21.338Z,2.07
2019-06-01T12:09:49.511Z,2.67
2019-06-01T12:12:17.656Z,2.70
2019-06-01T12:14:46.819Z,2.97
2019-06-01T12:17:15.267Z,1.50
2019-06-01T12:19:44.665Z,2.20
2019-06-01T12:22:13.142Z,3.20
2019-06-01T12:24:41.192Z,3.17
2019-06-01T12:27:09.324Z,3.43
2019-06-01T12:29:47.870Z,1.77
2019-06-01T12:32:16.312Z,2.83
2019-06-01T12:34:44.378Z,2.93
2019-06-01T12:37:12.482Z,2.30
2019-06-01T12:39:40.540Z,2.33
2019-06-01T12:42:08.660Z,3.83
2019-06-01T12:44:36.704Z,2.63
2019-06-01T12:47:04.849Z,3.03
2019-06-01T12:49:32.896Z,3.67
2019-06-01T12:52:01.080Z,2.00
2019-06-01T12:54:29.114Z,2.60
2019-06-01T12:56:57.290Z,3.10
2019-06-01T12:59:25.347Z,2.40
2019-06-01T13:01:55.976Z,2.63
2019-06-01T13:04:24.041Z,2.87
2019-06-01T13:06:54.019Z,4.37
2019-06-01T13:09:22.047Z,3.30
2019-06-01T13:11:51.375Z,3.33
2019-06-01T13:14:22.239Z,2.37
2019-06-01T13:17:06.020Z,2.77
2019-06-01T13:19:20.002Z,5.90
2019-06-01T13:21:50.002Z,2.50
2019-06-01T13:24:18.257Z,2.33
2019-06-01T13:26:47.696Z,3.27
2019-06-01T13:29:15.945Z,3.17
2019-06-01T13:31:44.423Z,4.33
2019-06-01T13:34:12.431Z,3.27
2019-06-01T13:36:40.500Z,3.50
2019-06-01T13:39:09.064Z,2.83
2019-06-01T13:41:37.157Z,3.40
2019-06-01T13:44:05.244Z,6.23
2019-06-01T13:46:33.299Z,5.63
2019-06-01T13:49:01.373Z,4.63
2019-06-01T13:51:29.449Z,3.90
2019-06-01T13:53:57.527Z,4.17
2019-06-01T13:56:25.626Z,4.33
2019-06-01T13:58:54.439Z,3.40
2019-06-01T14:01:22.794Z,4.47
2019-06-01T14:03:52.205Z,5.13
2019-06-01T14:06:20.561Z,4.10
2019-06-01T14:08:49.078Z,4.23
2019-06-01T14:11:17.185Z,3.97
2019-06-01T14:13:45.379Z,3.00
2019-06-01T14:16:13.442Z,4.87
2019-06-01T14:19:06.656Z,5.53
2019-06-01T14:22:02.216Z,2.80
2019-06-01T14:24:43.751Z,2.97
2019-06-01T14:27:09.242Z,3.30
2019-06-01T14:29:37.307Z,3.57
2019-06-01T14:32:05.413Z,7.13
2019-06-01T14:34:33.418Z,3.40
2019-06-01T14:37:01.599Z,4.30
2019-06-01T14:39:29.580Z,5.00
2019-06-01T14:41:57.713Z,3.77
2019-06-01T14:44:25.843Z,3.90
2019-06-01T14:47:02.315Z,5.03
2019-06-01T14:49:35.387Z,3.57
2019-06-01T14:52:03.316Z,4.43
2019-06-01T14:54:31.443Z,6.80
2019-06-01T14:56:59.487Z,4.53
2019-06-01T14:59:27.606Z,4.77
2019-06-01T15:01:56.239Z,5.83
2019-06-01T15:04:24.780Z,4.57
2019-06-01T15:06:54.130Z,4.87
2019-06-01T15:09:22.698Z,3.93
2019-06-01T15:11:50.854Z,4.97
2019-06-01T15:14:18.941Z,5.20
2019-06-01T15:16:47.002Z,3.50
2019-06-01T15:19:15.087Z,5.60
2019-06-01T15:21:43.255Z,4.80
2019-06-01T15:24:11.333Z,4.57
2019-06-01T15:26:39.386Z,3.20
2019-06-01T15:29:07.474Z,4.23
2019-06-01T15:31:35.543Z,4.73
2019-06-01T15:34:03.613Z,4.43
2019-06-01T15:36:31.791Z,3.33
2019-06-01T15:38:59.952Z,4.87
2019-06-01T15:41:27.946Z,3.63
2019-06-01T15:43:57.049Z,4.33
2019-06-01T15:46:25.192Z,4.67
2019-06-01T15:48:53.632Z,5.23
2019-06-01T15:51:21.887Z,5.33
2019-06-01T15:53:49.978Z,3.17
2019-06-01T15:56:18.243Z,5.07
2019-06-01T15:58:52.800Z,3.40
2019-06-01T16:01:16.041Z,5.37
2019-06-01T16:03:44.115Z,3.80
2019-06-01T16:06:12.240Z,3.40
2019-06-01T16:08:40.415Z,4.00
2019-06-01T16:11:08.511Z,6.07
2019-06-01T16:13:36.479Z,6.57
2019-06-01T16:16:05.216Z,4.30
2019-06-01T16:18:33.664Z,5.53
2019-06-01T16:21:02.264Z,6.80
2019-06-01T16:23:46.241Z,5.53
2019-06-01T16:26:10.878Z,5.30
2019-06-01T16:28:30.410Z,4.77
2019-06-01T16:30:58.604Z,4.70
2019-06-01T16:33:26.827Z,4.17
2019-06-01T16:35:55.063Z,4.13
2019-06-01T16:38:23.620Z,5.53
2019-06-01T16:40:51.733Z,4.53
2019-06-01T16:43:20.124Z,4.10
2019-06-01T16:45:48.338Z,3.80
2019-06-01T16:48:16.696Z,5.40
2019-06-01T16:50:44.877Z,5.67
2019-06-01T16:53:13.323Z,6.33
2019-06-01T16:55:49.283Z,4.73
2019-06-01T16:58:17.589Z,5.00
2019-06-01T17:00:45.888Z,3.53
2019-06-01T17:03:14.128Z,5.33
2019-06-01T17:05:42.582Z,4.53
2019-06-01T17:08:11.533Z,5.50
2019-06-01T17:10:39.773Z,4.33
2019-06-01T17:13:09.028Z,4.57
2019-06-01T17:15:40.249Z,4.43
2019-06-01T17:18:10.379Z,4.97
2019-06-01T17:20:43.822Z,5.80
2019-06-01T17:23:26.343Z,4.43
2019-06-01T17:25:41.667Z,6.13
2019-06-01T17:28:09.914Z,8.33
2019-06-01T17:30:38.134Z,4.50
2019-06-01T17:33:06.646Z,4.67
2019-06-01T17:35:36.194Z,6.03
2019-06-01T17:38:05.046Z,4.70
2019-06-01T17:40:37.447Z,6.30
2019-06-01T17:43:03.072Z,5.47
2019-06-01T17:45:31.155Z,6.33
2019-06-01T17:48:17.271Z,5.40
2019-06-01T17:50:29.343Z,5.33
2019-06-01T17:52:57.468Z,6.43
2019-06-01T17:55:30.399Z,6.47
2019-06-01T17:57:58.608Z,5.50
2019-06-01T18:00:26.688Z,6.17
2019-06-01T18:02:54.976Z,5.90
2019-06-01T18:05:23.151Z,6.97
2019-06-01T18:07:51.189Z,7.70
2019-06-01T18:10:19.798Z,7.17
2019-06-01T18:12:47.922Z,7.93
2019-06-01T18:15:16.134Z,10.90
2019-06-01T18:17:44.196Z,6.27
2019-06-01T18:20:12.961Z,6.67
2019-06-01T18:22:41.030Z,8.90
2019-06-01T18:25:10.437Z,7.83
2019-06-01T18:27:38.482Z,6.63
2019-06-01T18:30:06.888Z,6.90
2019-06-01T18:32:34.945Z,8.17
2019-06-01T18:35:03.115Z,4.80
2019-06-01T18:37:31.183Z,5.23
2019-06-01T18:39:59.247Z,5.67
2019-06-01T18:42:28.827Z,5.27
2019-06-01T18:44:56.865Z,7.43
2019-06-01T18:47:32.245Z,4.50
2019-06-01T18:49:54.808Z,4.40
2019-06-01T18:52:23.121Z,4.10
2019-06-01T18:54:51.229Z,5.83
2019-06-01T18:57:21.565Z,4.93
2019-06-01T18:59:49.185Z,4.00
2019-06-01T19:02:17.311Z,6.57
2019-06-01T19:04:45.623Z,4.50
2019-06-01T19:07:13.824Z,3.43
2019-06-01T19:09:41.959Z,3.60
2019-06-01T19:12:10.041Z,4.93
2019-06-01T19:14:38.142Z,3.73
2019-06-01T19:17:06.276Z,4.03
2019-06-01T19:19:34.287Z,3.30
2019-06-01T19:22:02.398Z,4.40
2019-06-01T19:24:30.470Z,3.53
2019-06-01T19:26:58.531Z,4.57
2019-06-01T19:29:26.661Z,3.07
2019-06-01T19:31:54.744Z,4.00
2019-06-01T19:34:23.289Z,3.43
2019-06-01T19:36:52.833Z,5.13
2019-06-01T19:39:20.911Z,3.20
2019-06-01T19:41:48.990Z,5.73
2019-06-01T19:44:17.857Z,6.17
2019-06-01T19:46:46.193Z,5.47
2019-06-01T19:49:15.060Z,5.83
2019-06-01T19:51:43.226Z,5.03
2019-06-01T19:54:11.233Z,5.70
2019-06-01T19:56:39.442Z,7.60
2019-06-01T19:59:07.529Z,3.83
2019-06-01T20:01:35.634Z,5.30
2019-06-01T20:04:03.670Z,5.77
2019-06-01T20:06:31.712Z,11.43
2019-06-01T20:08:59.746Z,5.57
2019-06-01T20:11:27.782Z,6.47
2019-06-01T20:13:55.910Z,6.57
2019-06-01T20:16:23.942Z,7.33
2019-06-01T20:18:52.137Z,6.53
2019-06-01T20:21:20.738Z,9.40
2019-06-01T20:23:49.460Z,7.40
2019-06-01T20:26:17.610Z,6.87
2019-06-01T20:28:45.741Z,4.77
2019-06-01T20:31:13.801Z,5.33
2019-06-01T20:33:41.941Z,8.47
2019-06-01T20:36:10.050Z,4.83
2019-06-01T20:38:38.196Z,6.47
2019-06-01T20:41:06.354Z,8.77
2019-06-01T20:43:34.392Z,7.47
2019-06-01T20:46:02.357Z,6.57
2019-06-01T20:48:30.338Z,8.37
2019-06-01T20:50:58.312Z,7.80
2019-06-01T20:53:26.538Z,8.10
2019-06-01T20:55:54.656Z,7.33
2019-06-01T20:58:23.635Z,8.47
2019-06-01T21:00:52.570Z,6.83
2019-06-01T21:03:21.866Z,7.43
2019-06-01T21:05:50.257Z,6.17
2019-06-01T21:08:18.343Z,7.23
2019-06-01T21:10:46.458Z,8.13
2019-06-01T21:13:14.524Z,8.40
2019-06-01T21:15:42.671Z,8.30
2019-06-01T21:18:10.848Z,5.80
2019-06-01T21:20:38.893Z,7.70
2019-06-01T21:23:06.976Z,8.87
2019-06-01T21:25:35.017Z,8.70
2019-06-01T21:28:03.216Z,7.20
2019-06-01T21:30:32.654Z,9.17
2019-06-01T21:33:00.801Z,9.50
2019-06-01T21:35:28.840Z,8.90
2019-06-01T21:37:56.906Z,7.93
2019-06-01T21:40:25.760Z,7.20
2019-06-01T21:43:03.047Z,10.00
2019-06-01T21:45:23.754Z,11.53
2019-06-01T21:47:52.200Z,9.20
2019-06-01T21:50:20.247Z,10.93
2019-06-01T21:52:48.275Z,10.10
2019-06-01T21:55:17.970Z,9.43
2019-06-01T21:57:46.050Z,7.13
2019-06-01T22:00:18.566Z,7.53
2019-06-01T22:02:46.718Z,9.23
2019-06-01T22:05:14.788Z,10.47
2019-06-01T22:07:42.850Z,8.17
2019-06-01T22:10:10.947Z,7.77
2019-06-01T22:12:38.971Z,10.13
2019-06-01T22:15:07.033Z,9.90
2019-06-01T22:17:35.125Z,7.30
2019-06-01T22:20:03.175Z,9.40
2019-06-01T22:22:31.270Z,8.10
2019-06-01T22:24:59.309Z,9.70
2019-06-01T22:27:28.508Z,13.93
2019-06-01T22:29:56.655Z,8.73
2019-06-01T22:32:28.011Z,12.75
2019-06-01T22:34:54.567Z,9.97
2019-06-01T22:37:23.664Z,8.90
2019-06-01T22:39:52.217Z,9.10
2019-06-01T22:42:20.227Z,11.23
2019-06-01T22:44:48.330Z,11.17
2019-06-01T22:47:16.421Z,10.27
2019-06-01T22:49:44.466Z,13.13
2019-06-01T22:52:12.552Z,9.50
2019-06-01T22:54:40.788Z,10.53
2019-06-01T22:57:08.878Z,10.53
2019-06-01T22:59:36.944Z,10.90
2019-06-01T23:02:05.100Z,11.07
2019-06-01T23:04:33.159Z,11.87
2019-06-01T23:07:01.266Z,13.87
2019-06-01T23:09:29.773Z,13.17
2019-06-01T23:11:57.921Z,10.23
2019-06-01T23:14:25.959Z,10.43
2019-06-01T23:16:54.037Z,12.77
2019-06-01T23:19:22.142Z,10.37
2019-06-01T23:21:50.212Z,9.73
2019-06-01T23:24:18.278Z,14.53
2019-06-01T23:26:46.310Z,8.90
2019-06-01T23:29:14.586Z,14.10
2019-06-01T23:31:42.637Z,11.37
2019-06-01T23:34:10.709Z,10.10
2019-06-01T23:36:39.531Z,10.67
2019-06-01T23:39:07.701Z,9.60
2019-06-01T23:41:35.680Z,10.60
2019-06-01T23:44:11.955Z,14.00
2019-06-01T23:46:33.533Z,10.50
2019-06-01T23:49:01.589Z,12.10
2019-06-01T23:51:29.653Z,9.63
2019-06-01T23:53:57.693Z,9.33
2019-06-01T23:56:25.784Z,14.50
2019-06-01T23:58:53.833Z,9.67
